createdAt,value
2022-09-23T00:01:38.298Z,4.10
2022-09-23T00:04:42.297Z,5.15
2022-09-23T00:07:44.565Z,4.47
2022-09-23T00:10:46.535Z,4.20
2022-09-23T00:13:49.368Z,3.97
2022-09-23T00:16:51.318Z,4.10
2022-09-23T00:19:54.218Z,3.95
2022-09-23T00:22:57.851Z,5.72
2022-09-23T00:26:01.077Z,5.25
2022-09-23T00:29:03.043Z,5.43
2022-09-23T00:32:05.236Z,5.85
2022-09-23T00:35:08.746Z,6.95
2022-09-23T00:38:10.692Z,5.80
2022-09-23T00:41:15.042Z,5.63
2022-09-23T00:44:35.677Z,7.32
2022-09-23T00:48:01.494Z,7.17
2022-09-23T00:51:04.185Z,5.75
2022-09-23T00:54:06.727Z,5.25
2022-09-23T00:57:11.246Z,4.97
2022-09-23T01:00:13.258Z,4.97
2022-09-23T01:03:15.263Z,5.68
2022-09-23T01:06:17.382Z,7.35
2022-09-23T01:09:19.941Z,6.53
2022-09-23T01:12:31.067Z,7.35
2022-09-23T01:15:51.572Z,7.32
2022-09-23T01:19:11.605Z,7.30
2022-09-23T01:22:36.569Z,9.10
2022-09-23T01:26:17.354Z,9.65
2022-09-23T01:29:21.831Z,10.18
2022-09-23T01:32:25.219Z,10.98
2022-09-23T01:35:43.030Z,10.73
2022-09-23T01:38:52.808Z,9.80
2022-09-23T01:41:54.694Z,8.90
2022-09-23T01:44:59.696Z,9.85
2022-09-23T01:48:05.303Z,10.23
2022-09-23T01:51:19.178Z,8.43
2022-09-23T01:54:50.697Z,9.15
2022-09-23T01:57:58.866Z,8.98
2022-09-23T02:01:02.734Z,8.70
2022-09-23T02:04:11.584Z,9.02
2022-09-23T02:07:20.502Z,7.85
2022-09-23T02:10:30.419Z,7.60
2022-09-23T02:13:35.108Z,7.07
2022-09-23T02:16:39.534Z,6.95
2022-09-23T02:19:45.166Z,7.97
2022-09-23T02:22:47.056Z,8.87
2022-09-23T02:26:11.979Z,8.10
2022-09-23T02:29:13.920Z,8.38
2022-09-23T02:32:37.324Z,9.40
2022-09-23T02:35:54.020Z,9.93
2022-09-23T02:38:57.875Z,10.45
2022-09-23T02:42:07.560Z,10.45
2022-09-23T02:45:09.595Z,9.90
2022-09-23T02:48:18.715Z,10.00
2022-09-23T02:51:20.698Z,9.30
2022-09-23T02:54:24.233Z,9.97
2022-09-23T02:57:26.370Z,9.75
2022-09-23T03:00:31.520Z,11.07
2022-09-23T03:03:53.841Z,9.98
2022-09-23T03:06:55.731Z,10.55
2022-09-23T03:10:00.732Z,9.32
2022-09-23T03:13:14.737Z,8.18
2022-09-23T03:16:37.370Z,8.10
2022-09-23T03:19:44.231Z,7.80
2022-09-23T03:22:49.676Z,8.13
2022-09-23T03:25:54.200Z,9.00
2022-09-23T03:28:56.302Z,9.27
2022-09-23T03:31:59.131Z,9.02
2022-09-23T03:35:02.005Z,9.05
2022-09-23T03:38:11.251Z,9.10
2022-09-23T03:41:17.072Z,8.85
2022-09-23T03:44:19.688Z,9.57
2022-09-23T03:47:21.818Z,9.63
2022-09-23T03:50:24.476Z,10.35
2022-09-23T03:53:26.419Z,10.80
2022-09-23T03:56:28.337Z,11.13
2022-09-23T03:59:30.841Z,14.88
2022-09-23T04:02:33.093Z,15.23
2022-09-23T04:05:36.579Z,13.85
2022-09-23T04:08:38.563Z,14.15
2022-09-23T04:11:40.491Z,12.38
2022-09-23T04:14:42.524Z,9.73
2022-09-23T04:17:44.620Z,8.57
2022-09-23T04:20:46.632Z,10.90
2022-09-23T04:23:48.616Z,13.32
2022-09-23T04:26:54.742Z,12.97
2022-09-23T04:29:56.678Z,10.55
2022-09-23T04:32:58.599Z,11.20
2022-09-23T04:36:00.705Z,9.88
2022-09-23T04:39:03.236Z,10.23
2022-09-23T04:42:05.263Z,9.77
2022-09-23T04:45:07.458Z,9.75
2022-09-23T04:48:10.377Z,9.33
2022-09-23T04:51:13.930Z,9.20
2022-09-23T04:54:15.941Z,9.68
2022-09-23T04:57:17.832Z,12.37
2022-09-23T05:00:19.913Z,10.55
2022-09-23T05:03:21.839Z,10.10
2022-09-23T05:06:24.531Z,10.23
2022-09-23T05:09:26.492Z,10.02
2022-09-23T05:12:28.725Z,9.52
2022-09-23T05:15:30.675Z,8.40
2022-09-23T05:18:33.672Z,7.57
2022-09-23T05:21:36.615Z,7.20
2022-09-23T05:24:38.627Z,8.07
2022-09-23T05:27:40.686Z,8.03
2022-09-23T05:30:42.703Z,7.78
2022-09-23T05:33:46.675Z,8.65
2022-09-23T05:36:48.802Z,9.38
2022-09-23T05:39:50.924Z,9.40
2022-09-23T05:42:53.410Z,9.63
2022-09-23T05:46:08.414Z,8.85
2022-09-23T05:49:10.900Z,8.10
2022-09-23T05:52:13.913Z,9.85
2022-09-23T05:55:18.749Z,8.65
2022-09-23T05:58:22.123Z,9.53
2022-09-23T06:01:29.155Z,9.90
2022-09-23T06:04:31.552Z,10.60
2022-09-23T06:07:33.660Z,9.55
2022-09-23T06:10:39.418Z,10.25
2022-09-23T06:13:41.923Z,9.38
2022-09-23T06:16:43.981Z,10.35
2022-09-23T06:19:45.939Z,8.80
2022-09-23T06:22:51.374Z,9.73
2022-09-23T06:25:54.375Z,8.63
2022-09-23T06:28:57.324Z,9.77
2022-09-23T06:31:59.718Z,10.77
2022-09-23T06:35:01.851Z,9.75
2022-09-23T06:38:05.487Z,10.60
2022-09-23T06:41:08.048Z,8.57
2022-09-23T06:44:10.514Z,8.20
2022-09-23T06:47:12.856Z,7.80
2022-09-23T06:50:15.183Z,8.38
2022-09-23T06:53:18.293Z,8.27
2022-09-23T06:56:22.146Z,7.07
2022-09-23T06:59:25.036Z,6.90
2022-09-23T07:02:27.263Z,7.93
2022-09-23T07:05:29.503Z,5.60
2022-09-23T07:08:33.779Z,6.95
2022-09-23T07:11:35.890Z,7.20
2022-09-23T07:14:38.166Z,6.82
2022-09-23T07:17:41.562Z,7.32
2022-09-23T07:20:44.122Z,6.87
2022-09-23T07:23:48.693Z,6.25
2022-09-23T07:26:51.729Z,6.65
2022-09-23T07:29:54.965Z,5.22
2022-09-23T07:32:57.689Z,4.50
2022-09-23T07:36:04.114Z,4.00
2022-09-23T07:39:07.610Z,4.10
2022-09-23T07:42:15.321Z,3.97
2022-09-23T07:45:18.631Z,3.10
2022-09-23T07:48:21.424Z,4.15
2022-09-23T07:51:35.729Z,3.23
2022-09-23T07:54:38.709Z,3.60
2022-09-23T07:57:40.943Z,3.05
2022-09-23T08:00:42.951Z,2.45
2022-09-23T08:03:45.490Z,3.70
2022-09-23T08:06:49.257Z,3.07
2022-09-23T08:09:51.261Z,3.10
2022-09-23T08:12:53.271Z,4.00
2022-09-23T08:15:55.729Z,3.30
2022-09-23T08:18:58.207Z,4.30
2022-09-23T08:22:00.332Z,2.90
2022-09-23T08:25:02.670Z,5.00
2022-09-23T08:28:04.786Z,3.78
2022-09-23T08:31:08.426Z,3.15
2022-09-23T08:34:10.741Z,2.97
2022-09-23T08:37:15.097Z,3.53
2022-09-23T08:40:18.491Z,3.08
2022-09-23T08:43:21.955Z,3.80
2022-09-23T08:46:26.893Z,2.97
2022-09-23T08:49:36.682Z,3.30
2022-09-23T08:52:50.767Z,3.03
2022-09-23T08:55:55.107Z,3.00
2022-09-23T08:58:57.488Z,2.75
2022-09-23T09:02:00.785Z,2.83
2022-09-23T09:05:06.331Z,3.22
2022-09-23T09:08:09.535Z,3.60
2022-09-23T09:11:13.932Z,3.15
2022-09-23T09:14:27.233Z,3.90
2022-09-23T09:17:39.893Z,3.50
2022-09-23T09:20:59.065Z,3.17
2022-09-23T09:24:02.242Z,3.93
2022-09-23T09:27:13.570Z,3.63
2022-09-23T09:30:16.637Z,3.60
2022-09-23T09:33:21.134Z,3.00
2022-09-23T09:36:49.485Z,3.22
2022-09-23T09:39:52.146Z,3.60
2022-09-23T09:42:54.854Z,3.10
2022-09-23T09:46:02.983Z,2.92
2022-09-23T09:49:05.798Z,3.28
2022-09-23T09:52:33.894Z,3.25
2022-09-23T09:55:36.251Z,3.13
2022-09-23T09:58:41.779Z,3.28
2022-09-23T10:01:44.200Z,3.20
2022-09-23T10:04:46.408Z,2.88
2022-09-23T10:07:48.586Z,3.80
2022-09-23T10:10:56.435Z,3.00
2022-09-23T10:14:07.584Z,3.65
2022-09-23T10:17:15.629Z,4.05
2022-09-23T10:20:18.039Z,3.50
2022-09-23T10:23:24.471Z,3.85
2022-09-23T10:26:49.526Z,3.73
2022-09-23T10:29:51.542Z,2.90
2022-09-23T10:32:55.067Z,3.35
2022-09-23T10:35:57.753Z,3.50
2022-09-23T10:39:19.641Z,3.00
2022-09-23T10:42:44.794Z,4.03
2022-09-23T10:46:08.344Z,3.80
2022-09-23T10:49:27.635Z,3.95
2022-09-23T10:52:43.636Z,3.72
2022-09-23T10:55:53.563Z,3.42
2022-09-23T10:59:14.361Z,3.10
2022-09-23T11:02:34.982Z,3.45
2022-09-23T11:05:45.867Z,4.45
2022-09-23T11:08:57.421Z,3.53
2022-09-23T11:12:08.428Z,3.90
2022-09-23T11:15:37.598Z,3.67
2022-09-23T11:19:09.093Z,3.60
2022-09-23T11:22:20.404Z,3.97
2022-09-23T11:25:46.280Z,3.10
2022-09-23T11:28:49.020Z,3.03
2022-09-23T11:32:06.786Z,3.23
2022-09-23T11:35:11.460Z,3.10
2022-09-23T11:38:39.854Z,3.28
2022-09-23T11:41:43.139Z,2.85
2022-09-23T11:44:50.263Z,3.47
2022-09-23T11:47:55.452Z,3.00
2022-09-23T11:51:06.288Z,3.45
2022-09-23T11:54:20.769Z,3.00
2022-09-23T11:57:47.787Z,3.60
2022-09-23T12:01:13.383Z,4.00
2022-09-23T12:04:21.343Z,3.10
2022-09-23T12:07:40.046Z,3.17
2022-09-23T12:10:51.732Z,3.08
2022-09-23T12:14:08.964Z,2.83
2022-09-23T12:17:11.261Z,3.05
2022-09-23T12:20:31.380Z,3.10
2022-09-23T12:23:52.087Z,2.97
2022-09-23T12:26:58.455Z,3.03
2022-09-23T12:30:14.916Z,2.75
2022-09-23T12:33:16.933Z,2.50
2022-09-23T12:36:26.656Z,2.43
2022-09-23T12:39:37.295Z,12.77
2022-09-23T12:42:46.362Z,2.95
2022-09-23T12:45:48.575Z,2.33
2022-09-23T12:49:00.445Z,2.58
2022-09-23T12:52:17.600Z,3.37
2022-09-23T12:55:23.199Z,3.08
2022-09-23T12:58:57.807Z,3.00
2022-09-23T13:02:21.612Z,3.60
2022-09-23T13:05:43.828Z,2.78
2022-09-23T13:08:46.396Z,3.87
2022-09-23T13:11:48.574Z,3.05
2022-09-23T13:14:52.429Z,2.55
2022-09-23T13:18:14.268Z,2.45
2022-09-23T13:21:18.100Z,4.93
2022-09-23T13:24:22.790Z,3.20
2022-09-23T13:27:28.703Z,8.40
2022-09-23T13:30:30.759Z,5.95
2022-09-23T13:33:42.740Z,3.83
2022-09-23T13:36:45.607Z,4.57
2022-09-23T13:39:47.642Z,3.60
2022-09-23T13:42:58.533Z,3.33
2022-09-23T13:46:01.190Z,3.00
2022-09-23T13:49:03.225Z,3.45
2022-09-23T13:52:05.236Z,3.40
2022-09-23T13:55:23.331Z,3.20
2022-09-23T13:58:28.332Z,2.80
2022-09-23T14:01:34.892Z,3.50
2022-09-23T14:04:36.939Z,3.25
2022-09-23T14:07:38.911Z,2.97
2022-09-23T14:10:46.130Z,3.40
2022-09-23T14:13:49.659Z,3.60
2022-09-23T14:16:52.085Z,3.70
2022-09-23T14:19:54.071Z,3.90
2022-09-23T14:23:06.323Z,4.05
2022-09-23T14:26:08.303Z,3.63
2022-09-23T14:29:27.198Z,3.17
2022-09-23T14:32:30.122Z,4.18
2022-09-23T14:35:44.791Z,5.32
2022-09-23T14:38:52.498Z,3.22
2022-09-23T14:41:54.813Z,3.70
2022-09-23T14:44:56.734Z,3.10
2022-09-23T14:48:00.098Z,3.38
2022-09-23T14:51:03.702Z,5.00
2022-09-23T14:54:26.592Z,4.97
2022-09-23T14:57:29.322Z,2.73
2022-09-23T15:00:31.587Z,3.08
2022-09-23T15:03:33.615Z,3.72
2022-09-23T15:06:37.464Z,4.18
2022-09-23T15:09:40.147Z,5.30
2022-09-23T15:12:43.212Z,6.53
2022-09-23T15:15:45.407Z,7.60
2022-09-23T15:18:53.236Z,7.00
2022-09-23T15:21:55.236Z,6.35
2022-09-23T15:25:16.263Z,8.30
2022-09-23T15:28:18.870Z,9.03
2022-09-23T15:31:22.619Z,5.65
2022-09-23T15:34:24.625Z,5.80
2022-09-23T15:37:26.593Z,6.05
2022-09-23T15:40:32.863Z,5.18
2022-09-23T15:43:34.820Z,5.33
2022-09-23T15:46:37.528Z,5.50
2022-09-23T15:49:39.463Z,5.47
2022-09-23T15:52:44.979Z,8.90
2022-09-23T15:55:47.024Z,8.00
2022-09-23T15:58:49.240Z,6.27
2022-09-23T16:01:52.449Z,8.52
2022-09-23T16:04:54.434Z,6.90
2022-09-23T16:07:56.330Z,7.60
2022-09-23T16:10:58.478Z,8.15
2022-09-23T16:14:00.783Z,7.60
2022-09-23T16:17:03.643Z,9.93
2022-09-23T16:20:05.818Z,8.90
2022-09-23T16:23:11.509Z,8.23
2022-09-23T16:26:17.053Z,11.45
2022-09-23T16:29:19.052Z,12.77
2022-09-23T16:32:22.292Z,14.20
2022-09-23T16:35:28.037Z,10.82
2022-09-23T16:38:30.346Z,11.93
2022-09-23T16:41:32.631Z,15.98
2022-09-23T16:44:34.669Z,20.83
2022-09-23T16:47:42.001Z,20.50
2022-09-23T16:50:44.179Z,21.58
2022-09-23T16:53:49.194Z,20.20
2022-09-23T16:56:52.185Z,15.63
2022-09-23T17:00:12.681Z,12.50
2022-09-23T17:03:33.233Z,11.23
2022-09-23T17:06:35.197Z,13.23
2022-09-23T17:09:37.117Z,21.15
2022-09-23T17:12:39.206Z,17.20
2022-09-23T17:15:42.378Z,18.97
2022-09-23T17:18:44.864Z,33.60
2022-09-23T17:21:46.888Z,34.10
2022-09-23T17:24:49.193Z,44.17
2022-09-23T17:27:52.551Z,96.15
2022-09-23T17:30:58.828Z,43.03
2022-09-23T17:34:01.003Z,18.00
2022-09-23T17:37:02.954Z,12.95
2022-09-23T17:40:05.234Z,14.05
2022-09-23T17:43:07.795Z,11.57
2022-09-23T17:46:11.297Z,10.77
2022-09-23T17:49:13.308Z,12.57
2022-09-23T17:52:19.207Z,19.20
2022-09-23T17:55:21.143Z,19.52
2022-09-23T17:58:26.587Z,15.48
2022-09-23T18:01:29.187Z,12.47
2022-09-23T18:04:31.166Z,13.48
2022-09-23T18:07:33.087Z,20.85
2022-09-23T18:10:35.065Z,13.65
2022-09-23T18:13:37.079Z,11.90
2022-09-23T18:16:40.289Z,11.30
2022-09-23T18:19:42.567Z,11.60
2022-09-23T18:22:44.527Z,13.45
2022-09-23T18:25:46.470Z,13.88
2022-09-23T18:28:48.601Z,18.98
2022-09-23T18:31:51.076Z,18.10
2022-09-23T18:34:53.141Z,23.35
2022-09-23T18:37:56.105Z,15.82
2022-09-23T18:40:58.750Z,15.18
2022-09-23T18:44:01.404Z,13.63
2022-09-23T18:47:03.326Z,11.70
2022-09-23T18:50:24.554Z,11.68
2022-09-23T18:53:26.510Z,11.57
2022-09-23T18:56:37.319Z,15.60
2022-09-23T18:59:40.065Z,15.00
2022-09-23T19:02:44.325Z,14.75
2022-09-23T19:05:46.287Z,15.70
2022-09-23T19:08:50.111Z,14.75
2022-09-23T19:11:52.547Z,14.33
2022-09-23T19:14:54.830Z,16.33
2022-09-23T19:17:56.745Z,18.38
2022-09-23T19:21:02.492Z,21.65
2022-09-23T19:24:07.548Z,19.98
2022-09-23T19:27:09.524Z,23.27
2022-09-23T19:30:13.563Z,23.85
2022-09-23T19:33:15.534Z,18.55
2022-09-23T19:36:22.427Z,27.03
2022-09-23T19:39:26.268Z,21.67
2022-09-23T19:42:30.013Z,30.45
2022-09-23T19:45:34.768Z,26.92
2022-09-23T19:48:36.722Z,26.40
2022-09-23T19:51:39.075Z,21.52
2022-09-23T19:54:41.084Z,22.20
2022-09-23T19:57:43.014Z,21.98
2022-09-23T20:00:45.170Z,18.93
2022-09-23T20:03:47.759Z,23.93
2022-09-23T20:06:49.739Z,39.45
2022-09-23T20:09:51.703Z,26.27
2022-09-23T20:12:53.805Z,30.35
2022-09-23T20:15:55.873Z,29.63
2022-09-23T20:18:59.660Z,26.45
2022-09-23T20:22:20.044Z,35.22
2022-09-23T20:25:22.023Z,29.63
2022-09-23T20:28:25.284Z,40.50
2022-09-23T20:31:28.523Z,31.08
2022-09-23T20:34:33.284Z,23.20
2022-09-23T20:37:35.282Z,23.53
2022-09-23T20:40:38.548Z,22.30
2022-09-23T20:43:40.567Z,27.95
2022-09-23T20:46:48.637Z,29.95
2022-09-23T20:49:50.980Z,27.57
2022-09-23T20:52:53.277Z,21.67
2022-09-23T20:55:56.817Z,20.88
2022-09-23T20:58:59.869Z,20.48
2022-09-23T21:02:02.511Z,21.77
2022-09-23T21:05:04.692Z,23.58
2022-09-23T21:08:08.463Z,22.83
2022-09-23T21:11:11.689Z,23.33
2022-09-23T21:14:13.643Z,22.70
2022-09-23T21:17:15.606Z,20.73
2022-09-23T21:20:17.603Z,25.60
2022-09-23T21:23:21.836Z,23.05
2022-09-23T21:26:25.132Z,19.33
2022-09-23T21:29:27.749Z,17.65
2022-09-23T21:32:31.221Z,15.50
2022-09-23T21:35:33.157Z,14.88
2022-09-23T21:38:38.322Z,14.93
2022-09-23T21:41:40.415Z,14.52
2022-09-23T21:44:42.439Z,14.02
2022-09-23T21:47:44.411Z,15.50
2022-09-23T21:50:53.513Z,13.38
2022-09-23T21:53:56.914Z,13.20
2022-09-23T21:56:58.909Z,13.82
2022-09-23T22:00:01.328Z,14.52
2022-09-23T22:03:03.306Z,13.95
2022-09-23T22:06:05.292Z,14.10
2022-09-23T22:09:09.048Z,15.57
2022-09-23T22:12:12.838Z,13.68
2022-09-23T22:15:14.962Z,14.68
2022-09-23T22:18:18.280Z,15.70
2022-09-23T22:21:20.229Z,13.67
2022-09-23T22:24:22.331Z,13.55
2022-09-23T22:27:25.479Z,14.00
2022-09-23T22:30:45.829Z,13.18
2022-09-23T22:33:49.693Z,12.70
2022-09-23T22:36:51.725Z,12.23
2022-09-23T22:39:54.124Z,13.38
2022-09-23T22:42:56.371Z,12.97
2022-09-23T22:45:59.737Z,12.95
2022-09-23T22:49:01.806Z,13.32
2022-09-23T22:52:05.721Z,13.98
2022-09-23T22:55:08.435Z,14.93
2022-09-23T22:58:30.837Z,14.18
2022-09-23T23:01:33.761Z,12.32
2022-09-23T23:04:36.546Z,11.53
2022-09-23T23:07:38.520Z,13.55
2022-09-23T23:10:40.972Z,12.02
2022-09-23T23:13:43.030Z,13.90
2022-09-23T23:16:46.247Z,12.77
2022-09-23T23:19:48.230Z,14.13
2022-09-23T23:22:50.178Z,13.30
2022-09-23T23:25:52.104Z,14.33
2022-09-23T23:28:54.552Z,14.82
2022-09-23T23:31:56.568Z,13.50
2022-09-23T23:34:58.567Z,13.33
2022-09-23T23:38:00.768Z,13.05
2022-09-23T23:41:02.927Z,14.13
2022-09-23T23:44:05.631Z,13.65
2022-09-23T23:47:07.603Z,13.57
2022-09-23T23:50:09.773Z,11.38
2022-09-23T23:53:11.980Z,10.85
2022-09-23T23:56:15.351Z,10.23
2022-09-23T23:59:19.704Z,11.20
